Time;durP1;ratioP1;P1;durP2;ratioP2;P2;SDS_P1;SDS_P2;PMS_P1;PMS_P2;Temp;Humidity;BMP_temperature;BMP_pressure;BME280_temperature;BME280_humidity;BME280_pressure;Samples;Min_cycle;Max_cycle;Signal;HPM_P1;HPM_P2
2022/03/23 00:01:04;;;;;;;62.60;47.40;;;9.60;99.90;;;;;;5035286;28;20280;-74
2022/03/23 00:03:29;;;;;;;64.67;49.10;;;9.60;99.90;;;;;;5035656;28;20045;-74
2022/03/23 00:05:55;;;;;;;61.30;49.23;;;9.60;99.90;;;;;;5032727;28;20191;-74
2022/03/23 00:08:21;;;;;;;60.80;48.07;;;9.60;99.90;;;;;;5034136;28;20803;-74
2022/03/23 00:10:48;;;;;;;59.27;47.73;;;9.50;99.90;;;;;;5035417;28;20058;-74
2022/03/23 00:13:13;;;;;;;62.93;49.90;;;9.50;99.90;;;;;;5035107;28;20591;-74
2022/03/23 00:15:40;;;;;;;59.83;49.40;;;9.50;99.90;;;;;;5035567;28;20366;-74
2022/03/23 00:18:06;;;;;;;67.77;50.97;;;9.40;99.90;;;;;;5034078;28;20326;-74
2022/03/23 00:20:33;;;;;;;59.57;49.23;;;9.40;99.90;;;;;;5034259;28;20273;-74
2022/03/23 00:22:59;;;;;;;62.03;48.43;;;9.30;99.90;;;;;;5035322;28;20367;-73
2022/03/23 00:25:24;;;;;;;62.37;49.13;;;9.30;99.90;;;;;;5034868;28;20287;-74
2022/03/23 00:27:50;;;;;;;60.43;48.13;;;9.20;99.90;;;;;;5034166;28;20284;-74
2022/03/23 00:30:16;;;;;;;62.90;47.33;;;9.20;99.90;;;;;;5033820;28;20493;-73
2022/03/23 00:32:42;;;;;;;61.10;48.07;;;9.20;99.90;;;;;;5035003;28;20057;-73
2022/03/23 00:35:08;;;;;;;58.97;47.47;;;9.10;99.90;;;;;;5033762;28;20648;-74
2022/03/23 00:37:34;;;;;;;59.40;47.00;;;9.10;99.90;;;;;;5034999;28;20053;-73
2022/03/23 00:40:00;;;;;;;55.07;46.27;;;9.20;99.90;;;;;;5037648;28;20054;-73
2022/03/23 00:42:25;;;;;;;63.63;49.27;;;9.10;99.90;;;;;;5035045;28;20090;-73
2022/03/23 00:44:54;;;;;;;59.80;48.97;;;9.10;99.90;;;;;;5034924;28;20397;-73
2022/03/23 00:47:20;;;;;;;56.03;47.53;;;9.00;99.90;;;;;;5033536;28;20087;-74
2022/03/23 00:49:46;;;;;;;59.77;49.97;;;9.00;99.90;;;;;;5034766;28;20315;-73
2022/03/23 00:52:11;;;;;;;58.20;48.10;;;9.00;99.90;;;;;;5034522;28;20091;-73
2022/03/23 00:54:37;;;;;;;63.10;49.63;;;9.00;99.90;;;;;;5034653;28;20280;-73
2022/03/23 00:57:07;;;;;;;60.20;48.93;;;8.90;99.90;;;;;;5034752;28;20055;-73
2022/03/23 00:59:34;;;;;;;59.40;47.63;;;8.90;99.90;;;;;;5034641;28;20284;-73
2022/03/23 01:02:00;;;;;;;59.90;48.53;;;8.90;99.90;;;;;;5034526;28;20762;-73
2022/03/23 01:04:26;;;;;;;56.23;46.37;;;8.80;99.90;;;;;;5032725;28;20288;-73
2022/03/23 01:06:53;;;;;;;59.83;47.80;;;8.80;99.90;;;;;;5032837;28;20421;-73
2022/03/23 01:09:23;;;;;;;60.63;47.20;;;8.70;99.90;;;;;;5032972;28;20308;-73
2022/03/23 01:11:53;;;;;;;53.07;45.93;;;8.60;99.90;;;;;;5034304;28;20299;-73
2022/03/23 01:14:20;;;;;;;57.53;47.30;;;;;;;;;;5032997;28;20284;-73
2022/03/23 01:16:47;;;;;;;56.10;43.73;;;;;;;;;;5033844;28;20276;-74
2022/03/23 01:19:13;;;;;;;56.20;44.80;;;8.60;99.90;;;;;;5016451;28;20328;-73
2022/03/23 01:21:40;;;;;;;52.80;43.97;;;8.70;99.90;;;;;;5033167;28;20273;-73
2022/03/23 01:24:06;;;;;;;49.93;42.93;;;8.60;99.90;;;;;;5034168;28;20640;-73
2022/03/23 01:26:32;;;;;;;53.63;44.13;;;8.60;99.90;;;;;;5033689;28;20367;-73
2022/03/23 01:28:58;;;;;;;62.23;45.43;;;8.50;99.90;;;;;;5034208;28;20272;-73
2022/03/23 01:31:24;;;;;;;53.17;41.07;;;8.50;99.90;;;;;;5032305;28;20620;-73
2022/03/23 01:33:50;;;;;;;55.00;43.27;;;8.50;99.90;;;;;;5032672;28;20103;-73
2022/03/23 01:36:16;;;;;;;54.17;44.17;;;8.50;99.90;;;;;;5033214;28;20061;-74
2022/03/23 01:38:41;;;;;;;51.90;43.27;;;8.40;99.90;;;;;;5033017;28;20057;-73
2022/03/23 01:41:07;;;;;;;53.97;43.90;;;8.40;99.90;;;;;;5032726;28;20049;-73
2022/03/23 01:43:33;;;;;;;55.67;43.37;;;8.40;99.90;;;;;;5033354;28;20045;-73
2022/03/23 01:46:02;;;;;;;50.90;43.70;;;8.30;99.90;;;;;;5016120;28;20410;-73
2022/03/23 01:48:28;;;;;;;55.90;43.00;;;8.30;99.90;;;;;;5033001;28;20482;-74
2022/03/23 01:50:55;;;;;;;48.37;41.80;;;8.30;99.90;;;;;;5033567;28;20276;-74
2022/03/23 01:53:21;;;;;;;50.90;41.23;;;8.30;99.90;;;;;;5033245;28;20053;-74
2022/03/23 01:55:48;;;;;;;53.20;41.53;;;8.40;99.90;;;;;;5032302;28;20284;-74
2022/03/23 01:58:13;;;;;;;48.40;40.33;;;8.40;99.90;;;;;;5033159;28;20045;-74
2022/03/23 02:00:39;;;;;;;47.80;38.90;;;8.40;99.90;;;;;;5032144;28;20318;-73
2022/03/23 02:03:05;;;;;;;47.83;40.50;;;8.30;99.90;;;;;;5033535;28;20085;-73
2022/03/23 02:05:30;;;;;;;51.90;43.20;;;8.30;99.90;;;;;;5032792;28;20053;-73
2022/03/23 02:07:56;;;;;;;48.90;40.77;;;8.20;99.90;;;;;;5032204;28;20064;-73
2022/03/23 02:10:23;;;;;;;53.77;40.87;;;8.20;99.90;;;;;;5032950;28;20087;-73
2022/03/23 02:12:49;;;;;;;52.00;42.93;;;8.20;99.90;;;;;;5033147;28;20308;-73
2022/03/23 02:15:17;;;;;;;56.27;44.20;;;8.20;99.90;;;;;;5015081;28;20387;-74
2022/03/23 02:17:45;;;;;;;52.50;42.17;;;8.20;99.90;;;;;;5033201;28;20054;-73
2022/03/23 02:20:12;;;;;;;48.13;41.53;;;8.20;99.90;;;;;;5033132;28;20272;-73
2022/03/23 02:22:38;;;;;;;56.40;42.93;;;8.10;99.90;;;;;;5032780;28;20609;-73
2022/03/23 02:25:07;;;;;;;56.93;45.13;;;8.10;99.90;;;;;;5015331;28;20291;-73
2022/03/23 02:27:36;;;;;;;54.80;44.13;;;8.10;99.90;;;;;;5032607;28;20334;-74
2022/03/23 02:30:05;;;;;;;53.17;41.30;;;8.10;99.90;;;;;;5032467;28;20322;-74
2022/03/23 02:32:30;;;;;;;54.78;42.45;;;8.10;99.90;;;;;;5032457;28;20354;-74
2022/03/23 02:34:58;;;;;;;52.53;42.73;;;8.00;99.90;;;;;;5032943;28;20049;-74
2022/03/23 02:37:23;;;;;;;51.43;41.53;;;7.90;99.90;;;;;;5033450;28;20049;-74
2022/03/23 02:39:49;;;;;;;49.60;40.40;;;8.00;99.90;;;;;;5017616;28;20815;-74
2022/03/23 02:42:15;;;;;;;50.10;40.63;;;7.90;99.90;;;;;;5031705;28;20045;-74
2022/03/23 02:44:41;;;;;;;58.73;42.33;;;7.90;99.90;;;;;;5031623;28;20053;-74
2022/03/23 02:47:08;;;;;;;50.80;41.23;;;7.90;99.90;;;;;;5033175;28;20740;-74
2022/03/23 02:49:35;;;;;;;48.72;41.60;;;7.90;99.90;;;;;;5015242;28;20084;-74
2022/03/23 02:52:00;;;;;;;49.63;40.83;;;7.80;99.90;;;;;;5031556;28;20400;-73
2022/03/23 03:02:59;;;;;;;53.97;39.60;;;7.80;99.90;;;;;;5032912;28;20096;-73
2022/03/23 03:05:25;;;;;;;45.87;38.97;;;7.80;99.90;;;;;;5032060;28;20088;-74
2022/03/23 03:10:35;;;;;;;47.10;39.70;;;7.80;99.90;;;;;;5032330;28;20049;-74
2022/03/23 03:13:01;;;;;;;52.27;42.23;;;7.80;99.90;;;;;;5031023;28;20374;-74
2022/03/23 03:15:27;;;;;;;53.60;40.35;;;7.80;99.90;;;;;;5031276;28;20052;-74
2022/03/23 03:17:58;;;;;;;52.97;40.70;;;7.80;99.90;;;;;;5015175;28;20128;-74
2022/03/23 03:20:24;;;;;;;46.95;38.78;;;7.70;99.90;;;;;;5031245;28;20620;-74
2022/03/23 03:22:50;;;;;;;51.67;41.30;;;7.70;99.90;;;;;;5032497;28;20045;-74
2022/03/23 03:25:17;;;;;;;48.95;40.63;;;7.70;99.90;;;;;;5032119;28;20050;-74
2022/03/23 03:27:44;;;;;;;51.40;41.10;;;7.70;99.90;;;;;;5030940;28;20054;-74
2022/03/23 03:30:15;;;;;;;52.45;42.63;;;7.70;99.90;;;;;;5031374;28;20049;-74
2022/03/23 03:32:42;;;;;;;49.85;41.08;;;7.60;99.90;;;;;;5032064;28;20126;-74
2022/03/23 03:35:10;;;;;;;50.80;41.63;;;7.60;99.90;;;;;;5032594;28;20053;-74
2022/03/23 03:37:37;;;;;;;47.88;41.13;;;7.60;99.90;;;;;;5032058;28;20045;-74
2022/03/23 03:40:07;;;;;;;45.40;39.70;;;7.60;99.90;;;;;;5032713;28;20046;-74
2022/03/23 03:42:34;;;;;;;48.90;40.75;;;7.60;99.90;;;;;;5035766;28;20041;-74
2022/03/23 03:45:01;;;;;;;49.50;40.30;;;7.60;99.90;;;;;;5035994;28;20132;-74
2022/03/23 03:47:27;;;;;;;53.38;42.75;;;7.50;99.90;;;;;;5034447;28;20059;-74
2022/03/23 03:49:53;;;;;;;47.13;40.47;;;7.50;99.90;;;;;;5035783;28;20412;-74
2022/03/23 03:52:19;;;;;;;47.97;39.45;;;7.50;99.90;;;;;;5035737;28;20045;-74
2022/03/23 03:54:45;;;;;;;49.57;41.03;;;7.40;99.90;;;;;;5017986;28;20176;-74
2022/03/23 03:57:11;;;;;;;51.28;41.97;;;7.30;99.90;;;;;;5034625;28;20049;-73
2022/03/23 03:59:37;;;;;;;50.97;40.03;;;7.30;99.90;;;;;;5035425;28;20049;-73
2022/03/23 04:02:04;;;;;;;52.35;41.03;;;;;;;;;;5035954;28;20049;-73
2022/03/23 04:04:30;;;;;;;54.60;42.30;;;7.30;99.90;;;;;;5034563;28;20503;-74
2022/03/23 04:06:56;;;;;;;50.33;41.85;;;7.20;99.90;;;;;;5034235;28;20146;-74
2022/03/23 04:09:22;;;;;;;51.28;41.65;;;7.20;99.90;;;;;;5035452;28;20053;-74
2022/03/23 04:11:47;;;;;;;48.87;40.30;;;7.20;99.90;;;;;;5035022;28;20099;-74
2022/03/23 04:14:13;;;;;;;49.83;39.57;;;7.20;99.90;;;;;;5035368;28;20053;-73
2022/03/23 04:16:39;;;;;;;49.10;39.07;;;7.20;99.90;;;;;;5033954;28;20041;-73
2022/03/23 04:19:06;;;;;;;52.80;38.97;;;7.10;99.90;;;;;;5034265;28;20473;-73
2022/03/23 04:21:34;;;;;;;51.58;41.15;;;7.10;99.90;;;;;;5035079;28;20053;-74
2022/03/23 04:24:00;;;;;;;53.75;41.67;;;7.10;99.90;;;;;;5035234;28;20041;-73
2022/03/23 04:26:26;;;;;;;49.77;40.57;;;7.00;99.90;;;;;;5035253;28;20056;-73
2022/03/23 04:28:52;;;;;;;50.63;41.20;;;7.00;99.90;;;;;;5035048;28;20287;-74
2022/03/23 04:31:18;;;;;;;50.70;42.07;;;7.10;99.90;;;;;;5035016;28;20045;-73
2022/03/23 04:33:44;;;;;;;46.83;38.90;;;7.00;99.90;;;;;;5034748;28;20099;-74
2022/03/23 04:36:11;;;;;;;49.90;40.28;;;7.10;99.90;;;;;;5035510;28;20046;-73
2022/03/23 04:38:37;;;;;;;46.15;39.05;;;7.10;99.90;;;;;;5036910;28;20049;-74
2022/03/23 04:41:04;;;;;;;51.45;40.67;;;7.10;99.90;;;;;;5035173;28;20049;-74
2022/03/23 04:43:35;;;;;;;48.17;40.00;;;7.10;99.90;;;;;;5034358;28;20053;-78
2022/03/23 04:46:01;;;;;;;49.30;39.90;;;7.10;99.90;;;;;;5035094;28;20041;-73
2022/03/23 04:48:27;;;;;;;46.63;39.83;;;7.00;99.90;;;;;;5034925;28;20057;-74
2022/03/23 04:50:53;;;;;;;46.92;39.28;;;7.00;99.90;;;;;;5033029;28;20056;-74
2022/03/23 04:53:19;;;;;;;47.87;39.60;;;7.00;99.90;;;;;;5034391;28;20049;-74
2022/03/23 04:55:44;;;;;;;48.07;39.73;;;6.90;99.90;;;;;;5034454;28;20783;-74
2022/03/23 04:58:10;;;;;;;49.40;37.87;;;6.90;99.90;;;;;;5034538;28;20135;-73
2022/03/23 05:00:36;;;;;;;44.97;37.77;;;6.90;99.90;;;;;;5033614;28;20044;-73
2022/03/23 05:03:02;;;;;;;49.33;38.37;;;6.80;99.90;;;;;;5033575;28;20115;-73
2022/03/23 05:05:27;;;;;;;47.47;38.50;;;6.90;99.90;;;;;;5033163;28;20061;-73
2022/03/23 05:07:53;;;;;;;46.43;37.90;;;6.90;99.90;;;;;;5033040;28;20374;-74
2022/03/23 05:10:19;;;;;;;45.17;37.60;;;6.90;99.90;;;;;;5016880;28;20501;-73
2022/03/23 05:12:46;;;;;;;44.90;37.87;;;6.90;99.90;;;;;;5032861;28;20394;-74
2022/03/23 05:15:14;;;;;;;48.65;38.55;;;6.90;99.90;;;;;;5033404;28;20045;-73
2022/03/23 05:17:40;;;;;;;49.50;36.92;;;6.90;99.90;;;;;;5033966;28;20042;-74
2022/03/23 05:20:07;;;;;;;47.55;39.22;;;6.90;99.90;;;;;;5034191;28;20041;-73
2022/03/23 05:22:33;;;;;;;46.15;38.63;;;6.90;99.90;;;;;;5033989;28;20045;-76
2022/03/23 05:24:59;;;;;;;47.87;38.67;;;6.90;99.90;;;;;;5032849;28;20049;-73
2022/03/23 05:27:25;;;;;;;45.60;37.90;;;6.80;99.90;;;;;;5034027;28;20056;-74
2022/03/23 05:29:50;;;;;;;45.17;37.97;;;6.90;99.90;;;;;;5033750;28;20061;-73
2022/03/23 05:32:17;;;;;;;51.57;39.97;;;6.80;99.90;;;;;;5033518;28;20041;-73
2022/03/23 05:34:48;;;;;;;50.83;40.40;;;6.80;99.90;;;;;;5032612;28;20053;-73
2022/03/23 05:37:17;;;;;;;49.85;39.38;;;6.80;99.90;;;;;;5034167;28;20103;-73
2022/03/23 05:39:44;;;;;;;45.75;37.90;;;6.80;99.90;;;;;;5033475;28;20128;-73
2022/03/23 05:42:11;;;;;;;45.30;37.28;;;6.80;99.90;;;;;;5033994;28;20052;-73
2022/03/23 05:44:37;;;;;;;46.40;39.53;;;6.70;99.90;;;;;;5033228;28;20056;-74
2022/03/23 05:47:03;;;;;;;51.17;40.37;;;6.80;99.90;;;;;;5033880;28;20041;-73
2022/03/23 05:49:30;;;;;;;50.17;38.67;;;6.80;99.90;;;;;;5032406;28;20083;-73
2022/03/23 05:51:56;;;;;;;47.83;38.03;;;6.80;99.90;;;;;;5015682;28;20128;-74
2022/03/23 05:54:22;;;;;;;52.07;40.73;;;6.90;99.90;;;;;;5032362;28;20616;-74
2022/03/23 05:56:49;;;;;;;50.45;39.00;;;6.80;99.90;;;;;;5032046;28;20292;-73
2022/03/23 05:59:15;;;;;;;50.72;40.78;;;6.80;99.90;;;;;;5032353;28;20085;-73
2022/03/23 06:01:40;;;;;;;54.27;42.23;;;6.80;99.90;;;;;;5033094;28;20551;-74
2022/03/23 06:04:06;;;;;;;52.83;40.10;;;6.90;99.90;;;;;;5032150;28;20068;-74
2022/03/23 06:06:32;;;;;;;53.53;41.47;;;6.90;99.90;;;;;;5033481;28;20057;-73
2022/03/23 06:08:57;;;;;;;50.50;40.97;;;6.90;99.90;;;;;;5032927;28;20880;-73
2022/03/23 06:11:23;;;;;;;56.00;41.53;;;7.00;99.90;;;;;;5033131;28;20490;-74
2022/03/23 06:13:49;;;;;;;52.30;41.80;;;6.90;99.90;;;;;;5033294;28;20087;-74
2022/03/23 06:16:15;;;;;;;53.35;41.97;;;7.00;99.90;;;;;;5032036;28;20081;-74
2022/03/23 06:18:41;;;;;;;50.23;39.47;;;7.00;99.90;;;;;;5032850;28;20084;-75
2022/03/23 06:21:07;;;;;;;55.80;40.53;;;7.20;99.90;;;;;;5033196;28;20045;-73
2022/03/23 06:23:33;;;;;;;55.50;45.53;;;7.20;99.90;;;;;;5033069;28;20363;-73
2022/03/23 06:26:00;;;;;;;58.00;45.10;;;7.20;99.90;;;;;;5032463;28;20560;-74
2022/03/23 06:28:26;;;;;;;60.72;45.90;;;7.30;99.90;;;;;;5033231;28;20448;-74
2022/03/23 06:30:52;;;;;;;61.83;47.77;;;;;;;;;;5032730;28;20133;-74
2022/03/23 06:33:19;;;;;;;60.17;48.58;;;;;;;;;;5032825;28;20049;-74
2022/03/23 06:35:45;;;;;;;59.10;46.88;;;;;;;;;;5033117;28;20101;-74
2022/03/23 06:38:15;;;;;;;59.83;47.03;;;7.30;99.90;;;;;;5034639;28;20397;-74
2022/03/23 06:40:41;;;;;;;59.47;47.53;;;7.50;99.90;;;;;;5032121;28;20100;-74
2022/03/23 06:43:06;;;;;;;63.27;47.70;;;7.60;99.90;;;;;;5032995;28;20189;-74
2022/03/23 06:45:32;;;;;;;60.07;47.30;;;7.50;99.90;;;;;;5015376;28;20084;-74
2022/03/23 06:47:58;;;;;;;62.33;47.40;;;7.60;99.90;;;;;;5032653;28;20096;-74
2022/03/23 06:50:24;;;;;;;64.03;49.43;;;7.70;99.90;;;;;;5032925;28;20045;-73
2022/03/23 06:52:50;;;;;;;63.00;49.22;;;7.80;99.90;;;;;;5031359;28;20052;-74
2022/03/23 06:55:16;;;;;;;65.53;49.77;;;7.90;99.90;;;;;;5031893;28;20045;-74
2022/03/23 06:57:42;;;;;;;63.90;48.37;;;8.00;99.90;;;;;;5032762;28;20049;-74
2022/03/23 07:00:18;;;;;;;67.13;48.47;;;8.10;99.90;;;;;;5032443;28;20393;-74
2022/03/23 07:02:45;;;;;;;59.17;46.30;;;8.20;99.90;;;;;;5032780;28;20042;-74
2022/03/23 07:05:12;;;;;;;55.90;44.58;;;8.70;99.90;;;;;;5031367;28;20065;-74
2022/03/23 07:09:31;;;;;;;54.50;44.77;;;9.60;99.90;;;;;;5031668;28;20045;-74
2022/03/23 07:10:25;;;;;;;54.60;43.70;;;10.60;99.90;;;;;;5032562;28;20367;-75
2022/03/23 07:12:51;;;;;;;55.77;42.33;;;11.70;99.90;;;;;;5032206;28;20397;-75
2022/03/23 07:15:17;;;;;;;52.83;41.93;;;12.70;99.90;;;;;;5017352;28;20332;-74
2022/03/23 07:17:42;;;;;;;53.17;41.13;;;13.40;99.90;;;;;;5036486;28;20061;-74
2022/03/23 07:20:09;;;;;;;58.63;42.13;;;14.20;99.90;;;;;;5036126;28;20091;-74
2022/03/23 07:22:35;;;;;;;48.27;40.33;;;14.80;99.90;;;;;;5036501;28;20045;-74
2022/03/23 07:25:01;;;;;;;52.83;39.90;;;15.40;99.90;;;;;;5034899;28;20283;-75
2022/03/23 07:27:27;;;;;;;54.70;40.10;;;16.00;96.50;;;;;;5035164;28;20050;-74
2022/03/23 07:29:52;;;;;;;54.50;38.73;;;16.50;91.80;;;;;;5036085;28;20303;-75
2022/03/23 07:32:18;;;;;;;59.10;40.83;;;17.10;90.10;;;;;;5036145;28;20037;-75
2022/03/23 07:34:44;;;;;;;45.40;37.43;;;17.50;84.50;;;;;;5036156;28;20041;-75
2022/03/23 07:37:10;;;;;;;49.53;37.13;;;17.80;77.80;;;;;;5034895;28;20295;-75
2022/03/23 07:39:36;;;;;;;42.90;37.80;;;17.90;74.70;;;;;;5035880;28;20520;-75
2022/03/23 07:42:02;;;;;;;44.00;37.33;;;17.90;71.30;;;;;;5035809;28;20037;-75
2022/03/23 07:44:30;;;;;;;45.43;36.73;;;17.60;70.40;;;;;;5036117;28;20103;-75
2022/03/23 07:46:55;;;;;;;45.97;38.07;;;17.00;69.70;;;;;;5034575;28;20451;-75
2022/03/23 07:49:21;;;;;;;45.07;37.23;;;16.40;70.60;;;;;;5018305;28;20053;-75
2022/03/23 07:51:47;;;;;;;45.03;36.07;;;15.80;69.60;;;;;;5034756;28;20042;-75
2022/03/23 07:54:13;;;;;;;42.10;36.17;;;15.40;70.40;;;;;;5035490;28;20053;-75
2022/03/23 07:56:39;;;;;;;43.67;35.23;;;;;;;;;;5034598;28;20084;-75
2022/03/23 07:59:05;;;;;;;43.73;34.40;;;;;;;;;;5035556;28;20049;-75
2022/03/23 08:01:31;;;;;;;44.53;33.03;;;14.70;92.00;;;;;;5035643;28;20284;-75
2022/03/23 08:03:57;;;;;;;42.87;34.93;;;14.50;69.60;;;;;;5035025;28;20288;-75
2022/03/23 08:06:22;;;;;;;40.23;34.30;;;14.30;70.60;;;;;;5035566;28;20065;-75
2022/03/23 08:08:48;;;;;;;40.83;33.70;;;14.30;70.90;;;;;;5034486;28;20053;-75
2022/03/23 08:11:14;;;;;;;40.03;33.33;;;14.20;70.90;;;;;;5034090;28;20441;-75
2022/03/23 08:13:39;;;;;;;37.83;33.00;;;14.20;71.30;;;;;;5035547;28;20052;-75
2022/03/23 08:16:05;;;;;;;42.63;31.57;;;14.30;71.10;;;;;;5017666;28;20484;-75
2022/03/23 08:18:32;;;;;;;40.97;30.97;;;14.30;69.90;;;;;;5034364;28;20053;-75
2022/03/23 08:20:59;;;;;;;37.90;30.73;;;14.30;68.90;;;;;;5034022;28;20375;-75
2022/03/23 08:23:26;;;;;;;36.03;29.27;;;14.30;68.30;;;;;;5035577;28;20284;-75
2022/03/23 08:25:52;;;;;;;40.47;31.83;;;14.40;68.40;;;;;;5034513;28;20327;-75
2022/03/23 08:28:17;;;;;;;40.53;31.90;;;14.30;67.80;;;;;;5034502;28;20284;-75
2022/03/23 08:30:44;;;;;;;36.80;31.50;;;14.30;67.50;;;;;;5035162;28;20072;-74
2022/03/23 08:33:10;;;;;;;38.43;31.37;;;14.20;68.10;;;;;;5034753;28;20041;-75
2022/03/23 08:35:36;;;;;;;37.67;29.00;;;14.20;67.50;;;;;;5034569;28;20778;-75
2022/03/23 08:38:02;;;;;;;35.63;29.67;;;14.20;67.40;;;;;;5036172;28;20499;-75
2022/03/23 08:40:29;;;;;;;38.73;30.47;;;14.10;66.90;;;;;;5035206;28;20332;-76
2022/03/23 08:42:57;;;;;;;38.30;29.17;;;14.20;67.40;;;;;;5034971;28;20276;-79
2022/03/23 08:45:23;;;;;;;37.07;30.27;;;14.10;66.80;;;;;;5034914;28;20279;-77
2022/03/23 08:47:49;;;;;;;40.53;29.23;;;14.10;66.50;;;;;;5035119;28;20303;-77
2022/03/23 08:50:15;;;;;;;33.70;28.57;;;14.10;66.20;;;;;;5033343;28;20049;-77
2022/03/23 08:52:41;;;;;;;39.60;28.50;;;14.10;66.20;;;;;;5034662;28;20319;-77
2022/03/23 08:55:09;;;;;;;40.23;29.57;;;14.20;66.60;;;;;;5034352;28;20288;-77
2022/03/23 08:57:39;;;;;;;36.13;28.63;;;14.20;66.40;;;;;;5034942;28;20276;-77
2022/03/23 09:00:06;;;;;;;33.13;27.17;;;14.20;65.60;;;;;;5034475;28;20272;-77
2022/03/23 09:02:32;;;;;;;36.27;27.67;;;14.30;65.30;;;;;;5034171;28;20376;-77
2022/03/23 09:04:58;;;;;;;41.20;28.67;;;14.30;64.30;;;;;;5034149;28;20683;-78
2022/03/23 09:07:23;;;;;;;34.97;28.00;;;14.30;64.90;;;;;;5033557;28;20295;-77
2022/03/23 09:09:49;;;;;;;32.90;26.93;;;14.30;64.70;;;;;;5033755;28;20049;-76
2022/03/23 09:12:15;;;;;;;36.87;28.87;;;14.30;65.10;;;;;;5032589;28;20046;-77
2022/03/23 09:14:41;;;;;;;35.87;27.47;;;14.40;64.90;;;;;;5034370;28;20037;-77
2022/03/23 09:17:07;;;;;;;37.23;27.27;;;14.40;64.30;;;;;;5034048;28;20211;-77
2022/03/23 09:19:33;;;;;;;33.10;25.90;;;14.50;63.70;;;;;;5034348;28;20084;-77
2022/03/23 09:21:59;;;;;;;34.10;26.00;;;14.50;62.90;;;;;;5033019;28;20107;-77
2022/03/23 09:24:28;;;;;;;33.27;26.10;;;14.50;62.80;;;;;;5033206;28;20375;-77
2022/03/23 09:26:55;;;;;;;32.50;27.63;;;14.60;62.70;;;;;;5034287;28;20286;-77
2022/03/23 09:29:21;;;;;;;32.43;25.73;;;14.60;62.20;;;;;;5032887;28;20354;-78
2022/03/23 09:31:47;;;;;;;33.97;25.27;;;14.70;67.50;;;;;;5033941;28;20379;-77
2022/03/23 09:34:14;;;;;;;30.67;25.57;;;;;;;;;;5033584;28;20288;-78
2022/03/23 09:39:24;;;;;;;28.05;22.02;;;;;;;;;;5032475;28;20292;-74
2022/03/23 09:41:52;;;;;;;30.73;23.40;;;;;;;;;;5033802;28;20054;-73
2022/03/23 09:44:17;;;;;;;30.67;23.13;;;15.20;87.80;;;;;;5032653;28;20327;-73
2022/03/23 09:46:43;;;;;;;35.50;24.60;;;15.20;77.90;;;;;;5033682;28;20319;-74
2022/03/23 09:49:09;;;;;;;30.90;24.03;;;15.20;55.70;;;;;;5033190;28;20045;-75
2022/03/23 09:51:36;;;;;;;32.60;23.93;;;;;;;;;;5033868;28;20049;-74
2022/03/23 09:54:03;;;;;;;31.43;22.53;;;15.50;87.20;;;;;;5032228;28;20187;-79
2022/03/23 09:56:29;;;;;;;32.17;23.77;;;15.40;54.60;;;;;;5033650;28;20314;-74
2022/03/23 09:58:55;;;;;;;29.63;21.73;;;15.40;53.60;;;;;;5032703;28;20371;-74
2022/03/23 10:01:47;;;;;;;32.93;23.17;;;15.40;53.00;;;;;;5033369;28;20045;-73
2022/03/23 10:04:12;;;;;;;34.10;23.67;;;15.40;51.50;;;;;;5033603;28;20041;-70
2022/03/23 10:06:59;;;;;;;28.43;21.87;;;15.40;52.30;;;;;;5033483;28;20303;-73
2022/03/23 10:10:02;;;;;;;27.20;21.37;;;15.50;49.80;;;;;;5048609;28;20056;-73
2022/03/23 10:12:46;;;;;;;28.90;22.27;;;15.60;50.10;;;;;;5051736;28;20306;-73
2022/03/23 10:16:02;;;;;;;25.80;20.67;;;15.60;49.80;;;;;;5052878;28;20766;-77
2022/03/23 10:18:56;;;;;;;21.40;17.58;;;15.70;46.50;;;;;;5027043;28;20296;-74
2022/03/23 10:21:27;;;;;;;20.70;17.13;;;15.80;46.30;;;;;;5025162;28;20422;-78
2022/03/23 10:24:02;;;;;;;23.07;18.07;;;15.80;46.00;;;;;;5032557;28;20283;-78
2022/03/23 10:26:29;;;;;;;28.88;20.45;;;15.80;45.10;;;;;;5031389;28;20355;-79
2022/03/23 10:28:56;;;;;;;25.27;18.63;;;15.90;45.80;;;;;;5032011;28;20053;-77
2022/03/23 10:31:24;;;;;;;23.17;18.67;;;15.90;46.60;;;;;;5030129;28;20284;-79
2022/03/23 10:34:07;;;;;;;26.33;19.73;;;15.90;46.30;;;;;;5031590;28;20288;-78
2022/03/23 10:36:42;;;;;;;26.70;18.57;;;16.00;46.20;;;;;;5030482;28;20768;-78
2022/03/23 10:39:13;;;;;;;26.47;20.37;;;16.00;46.90;;;;;;5033657;28;20675;-77
2022/03/23 10:41:39;;;;;;;21.47;17.40;;;16.10;45.60;;;;;;5031054;28;20287;-77
2022/03/23 10:44:16;;;;;;;23.17;18.23;;;16.20;44.60;;;;;;5022168;28;20708;-77
2022/03/23 10:46:42;;;;;;;26.20;18.97;;;16.20;44.70;;;;;;5030842;28;20288;-75
2022/03/23 10:49:09;;;;;;;21.23;16.27;;;16.30;45.10;;;;;;5030511;28;20291;-77
2022/03/23 10:51:37;;;;;;;20.77;14.50;;;16.30;44.90;;;;;;5031740;28;20387;-74
2022/03/23 10:54:18;;;;;;;21.07;14.07;;;16.30;43.90;;;;;;5031503;28;20763;-76
2022/03/23 10:56:45;;;;;;;19.27;13.43;;;16.30;41.20;;;;;;5030447;28;20791;-77
2022/03/23 10:59:17;;;;;;;24.67;15.13;;;16.30;43.60;;;;;;5031172;28;20300;-77
2022/03/23 11:01:57;;;;;;;21.13;15.33;;;16.40;41.90;;;;;;5023293;28;20853;-79
2022/03/23 11:04:24;;;;;;;23.90;14.10;;;16.30;42.20;;;;;;5012133;28;20362;-76
2022/03/23 11:06:50;;;;;;;22.43;14.80;;;16.40;42.70;;;;;;5030910;28;20299;-76
2022/03/23 11:18:04;;;;;;;21.27;12.70;;;16.40;43.00;;;;;;5012939;28;20281;-78
2022/03/23 11:20:51;;;;;;;23.80;14.17;;;16.50;43.30;;;;;;5012837;28;20046;-76
2022/03/23 11:23:23;;;;;;;25.70;14.57;;;16.60;42.20;;;;;;5012617;28;20303;-76
2022/03/23 11:26:19;;;;;;;27.57;13.87;;;16.60;42.90;;;;;;5012823;28;20293;-76
2022/03/23 11:28:46;;;;;;;19.97;11.67;;;16.60;42.20;;;;;;5012136;28;20297;-76
2022/03/23 11:31:13;;;;;;;28.47;14.60;;;16.60;43.20;;;;;;5012438;28;20276;-79
2022/03/23 11:33:41;;;;;;;22.67;12.80;;;16.60;42.90;;;;;;5013011;28;20296;-76
2022/03/23 11:36:10;;;;;;;24.83;12.50;;;16.60;43.90;;;;;;5012848;28;20407;-76
2022/03/23 11:38:37;;;;;;;23.80;11.13;;;16.70;42.20;;;;;;5011401;28;20289;-76
2022/03/23 11:41:04;;;;;;;23.60;10.83;;;16.70;42.50;;;;;;5012413;28;20768;-76
2022/03/23 11:43:33;;;;;;;21.47;11.90;;;16.70;43.00;;;;;;5012337;28;20748;-76
2022/03/23 11:46:00;;;;;;;22.50;11.20;;;16.70;42.10;;;;;;5012728;28;20288;-76
2022/03/23 11:48:31;;;;;;;24.03;12.73;;;16.70;42.20;;;;;;5011097;28;20541;-76
2022/03/23 11:51:32;;;;;;;25.33;13.73;;;16.80;42.40;;;;;;5012509;28;20292;-76
2022/03/23 11:54:17;;;;;;;23.87;13.47;;;16.80;42.80;;;;;;5012507;28;20331;-76
2022/03/23 11:56:46;;;;;;;20.38;11.25;;;16.90;41.80;;;;;;5012536;28;20288;-76
2022/03/23 11:59:20;;;;;;;19.93;11.77;;;16.80;42.50;;;;;;5012461;28;20147;-77
2022/03/23 12:01:46;;;;;;;22.63;12.00;;;16.80;42.50;;;;;;5014831;28;20284;-74
2022/03/23 12:04:21;;;;;;;23.37;11.00;;;16.70;43.20;;;;;;5014703;28;20042;-74
2022/03/23 12:07:03;;;;;;;23.00;12.75;;;16.80;42.90;;;;;;5016256;28;20780;-74
2022/03/23 12:09:34;;;;;;;24.27;11.77;;;16.90;43.20;;;;;;5014629;28;20058;-75
2022/03/23 12:12:21;;;;;;;20.40;11.63;;;16.80;43.10;;;;;;5015726;28;20042;-75
2022/03/23 12:14:47;;;;;;;22.90;12.37;;;16.90;43.20;;;;;;5011444;28;20299;-75
2022/03/23 12:17:18;;;;;;;28.20;12.33;;;17.00;43.10;;;;;;5015736;28;20046;-75
2022/03/23 12:19:57;;;;;;;24.07;11.40;;;17.00;42.80;;;;;;5015755;28;20045;-75
2022/03/23 12:22:32;;;;;;;19.23;9.90;;;17.00;42.60;;;;;;5014388;28;20840;-76
2022/03/23 12:25:11;;;;;;;21.77;10.88;;;17.00;42.40;;;;;;5015241;28;20176;-80
2022/03/23 12:27:46;;;;;;;22.50;9.93;;;17.10;42.70;;;;;;5014072;28;20161;-75
2022/03/23 12:30:43;;;;;;;24.87;10.77;;;17.20;42.80;;;;;;5015543;28;20096;-75
2022/03/23 12:33:12;;;;;;;23.87;9.60;;;17.20;42.80;;;;;;5010485;28;20328;-75
2022/03/23 12:35:39;;;;;;;20.30;9.93;;;;;;;;;;5016128;28;20981;-76
2022/03/23 12:38:30;;;;;;;20.30;11.23;;;17.30;43.10;;;;;;5015963;28;20502;-76
2022/03/23 12:41:08;;;;;;;18.43;10.83;;;17.30;42.70;;;;;;4984800;28;20085;-76
2022/03/23 12:43:35;;;;;;;18.93;10.37;;;17.20;43.00;;;;;;5014079;28;20085;-76
2022/03/23 12:46:01;;;;;;;18.57;10.57;;;17.20;44.00;;;;;;5014229;28;20105;-76
2022/03/23 12:59:36;;;;;;;20.00;10.90;;;17.40;43.40;;;;;;5014653;28;20050;-76
2022/03/23 13:02:28;;;;;;;21.70;11.10;;;17.40;43.50;;;;;;5014841;28;20126;-76
2022/03/23 13:04:55;;;;;;;21.67;13.07;;;17.40;43.20;;;;;;5012347;28;20413;-76
2022/03/23 13:07:33;;;;;;;22.77;11.77;;;17.40;43.30;;;;;;5014729;28;20401;-82
2022/03/23 13:10:10;;;;;;;23.53;11.70;;;17.30;43.30;;;;;;5014638;28;20063;-76
2022/03/23 13:12:38;;;;;;;19.73;11.20;;;17.20;43.60;;;;;;5012354;28;20047;-76
2022/03/23 13:15:16;;;;;;;23.57;11.67;;;17.20;43.60;;;;;;5014584;28;20120;-76